Time;durP1;ratioP1;P1;durP2;ratioP2;P2;SDS_P1;SDS_P2;PMS_P1;PMS_P2;Temp;Humidity;BMP_temperature;BMP_pressure;BME280_temperature;BME280_humidity;BME280_pressure;Samples;Min_cycle;Max_cycle;Signal;HPM_P1;HPM_P2
2021/03/15 00:01:09;;;;;;;22.93;15.68;;;9.40;99.90;;;;;;1748494;82;21163;-70
2021/03/15 00:03:40;;;;;;;28.62;15.93;;;9.50;99.90;;;;;;1748501;82;21155;-71
2021/03/15 00:06:09;;;;;;;32.98;19.75;;;9.50;99.90;;;;;;1748512;82;21151;-71
2021/03/15 00:08:37;;;;;;;25.68;16.10;;;9.60;99.90;;;;;;1748479;82;21163;-71
2021/03/15 00:11:05;;;;;;;33.30;19.35;;;9.50;99.90;;;;;;1748330;82;21163;-71
2021/03/15 00:13:33;;;;;;;28.35;18.45;;;9.50;99.90;;;;;;1748604;81;21187;-71
2021/03/15 00:16:00;;;;;;;29.75;19.90;;;9.60;99.90;;;;;;1751518;81;21147;-71
2021/03/15 00:18:30;;;;;;;30.52;18.12;;;9.60;99.90;;;;;;1751472;82;21171;-71
2021/03/15 00:20:58;;;;;;;29.20;17.80;;;9.60;99.90;;;;;;1751474;82;21174;-71
2021/03/15 00:23:26;;;;;;;30.75;18.87;;;9.60;99.90;;;;;;1751562;82;21309;-72
2021/03/15 00:25:53;;;;;;;30.48;18.67;;;9.60;99.90;;;;;;1751735;82;21334;-72
2021/03/15 00:28:21;;;;;;;32.83;18.12;;;9.50;99.90;;;;;;1751671;82;21174;-71
2021/03/15 00:30:49;;;;;;;28.07;17.40;;;9.50;99.90;;;;;;1751489;82;21124;-72
2021/03/15 00:33:16;;;;;;;25.72;17.35;;;9.50;99.90;;;;;;1751470;82;21162;-72
2021/03/15 00:35:44;;;;;;;25.45;15.88;;;9.50;99.90;;;;;;1751735;81;21163;-71
2021/03/15 00:38:11;;;;;;;24.72;16.10;;;9.60;99.90;;;;;;1751442;81;21159;-71
2021/03/15 00:40:39;;;;;;;23.60;15.10;;;9.50;99.90;;;;;;1751636;82;21163;-71
2021/03/15 00:43:07;;;;;;;23.35;15.38;;;9.40;99.90;;;;;;1751655;82;21304;-71
2021/03/15 00:45:35;;;;;;;19.95;13.48;;;9.40;99.90;;;;;;1751642;82;21317;-70
2021/03/15 00:48:03;;;;;;;22.65;14.05;;;9.40;99.90;;;;;;1751547;81;21602;-70
2021/03/15 00:50:42;;;;;;;25.08;14.87;;;9.30;99.90;;;;;;1751445;81;21143;-71
2021/03/15 00:53:14;;;;;;;24.10;15.40;;;9.30;99.90;;;;;;1751313;82;21166;-71
2021/03/15 00:55:41;;;;;;;25.75;15.45;;;9.30;99.90;;;;;;1751433;82;21178;-71
2021/03/15 00:58:09;;;;;;;27.45;16.05;;;9.20;99.90;;;;;;1751430;82;21163;-71
2021/03/15 01:00:40;;;;;;;26.17;16.73;;;9.20;99.90;;;;;;1751443;82;21159;-71
2021/03/15 01:03:16;;;;;;;25.12;17.05;;;9.10;99.90;;;;;;1751499;82;21293;-71
2021/03/15 01:05:52;;;;;;;25.48;16.42;;;9.10;99.90;;;;;;1751309;82;21594;-71
2021/03/15 01:08:23;;;;;;;27.87;16.75;;;9.10;99.90;;;;;;1748263;82;21168;-71
2021/03/15 01:10:52;;;;;;;28.70;18.00;;;9.10;99.90;;;;;;1751422;81;21195;-71
2021/03/15 01:13:20;;;;;;;29.32;17.17;;;9.00;99.90;;;;;;1751455;82;21150;-72
2021/03/15 01:15:48;;;;;;;31.30;18.30;;;9.00;99.90;;;;;;1739680;81;21610;-72
2021/03/15 01:18:17;;;;;;;31.12;19.00;;;9.10;99.90;;;;;;1738918;82;21164;-71
2021/03/15 01:20:44;;;;;;;30.50;18.15;;;9.10;99.90;;;;;;1738989;82;21160;-72
2021/03/15 01:23:13;;;;;;;28.45;17.92;;;9.10;99.90;;;;;;1738924;82;21212;-71
2021/03/15 01:25:42;;;;;;;27.00;18.07;;;9.10;99.90;;;;;;1738742;82;21160;-71
2021/03/15 01:28:14;;;;;;;33.73;17.95;;;9.10;99.90;;;;;;1739245;82;21163;-71
2021/03/15 01:30:45;;;;;;;29.82;17.82;;;9.10;99.90;;;;;;1738791;82;21308;-71
2021/03/15 01:33:14;;;;;;;25.45;17.15;;;9.10;99.90;;;;;;1738751;82;21290;-71
2021/03/15 01:35:42;;;;;;;27.62;17.07;;;9.10;99.90;;;;;;1738759;82;21290;-71
2021/03/15 01:38:11;;;;;;;27.22;16.32;;;9.20;99.90;;;;;;1739199;82;21184;-71
2021/03/15 01:40:41;;;;;;;23.12;15.03;;;9.20;99.90;;;;;;1738759;82;21760;-71
2021/03/15 01:43:09;;;;;;;26.02;15.53;;;9.10;99.90;;;;;;1738942;82;21167;-72
2021/03/15 01:45:38;;;;;;;23.83;15.43;;;9.10;99.90;;;;;;1738851;82;21606;-72
2021/03/15 01:48:12;;;;;;;22.42;15.10;;;9.10;99.90;;;;;;1739011;82;21151;-72
2021/03/15 01:50:44;;;;;;;25.72;15.93;;;9.10;99.90;;;;;;1739057;82;21151;-72
2021/03/15 01:53:15;;;;;;;24.98;16.30;;;9.10;99.90;;;;;;1738850;82;21144;-72
2021/03/15 01:55:45;;;;;;;29.92;17.25;;;9.10;99.90;;;;;;1739113;82;21171;-71
2021/03/15 01:58:14;;;;;;;28.12;16.37;;;9.10;99.90;;;;;;1738894;82;21179;-72
2021/03/15 02:00:45;;;;;;;29.10;17.30;;;9.00;99.90;;;;;;1738846;82;21282;-71
2021/03/15 02:03:16;;;;;;;24.05;16.00;;;9.00;99.90;;;;;;1738597;82;21147;-71
2021/03/15 02:05:44;;;;;;;26.52;16.57;;;9.00;99.90;;;;;;1738710;82;21294;-71
2021/03/15 02:08:12;;;;;;;23.67;16.17;;;9.00;99.90;;;;;;1738805;82;21305;-72
2021/03/15 02:10:40;;;;;;;26.73;15.70;;;9.00;99.90;;;;;;1738730;82;21290;-72
2021/03/15 02:13:34;;;;;;;25.85;16.02;;;8.90;99.90;;;;;;1739120;82;21578;-72
2021/03/15 02:16:24;;;;;;;24.90;15.43;;;8.90;99.90;;;;;;1738787;82;21326;-73
2021/03/15 02:19:39;;;;;;;25.12;15.32;;;8.80;99.90;;;;;;1738682;82;21147;-73
2021/03/15 02:22:38;;;;;;;23.30;15.15;;;8.80;99.90;;;;;;1738889;82;21147;-72
2021/03/15 02:25:46;;;;;;;27.05;15.93;;;8.80;99.90;;;;;;1732366;82;21184;-73
2021/03/15 02:28:23;;;;;;;;;;;8.80;99.90;;;;;;1741377;82;21551;-71
2021/03/15 02:31:39;;;;;;;25.57;16.20;;;8.80;99.90;;;;;;1738535;82;20170;-70
2021/03/15 02:34:44;;;;;;;25.68;14.68;;;8.90;99.90;;;;;;1738691;82;21306;-70
2021/03/15 02:37:17;;;;;;;23.07;14.07;;;8.90;99.90;;;;;;1737205;82;21744;-71
2021/03/15 02:39:53;;;;;;;25.82;15.35;;;8.90;99.90;;;;;;1738901;82;21140;-70
2021/03/15 02:42:24;;;;;;;25.10;15.48;;;8.90;99.90;;;;;;1738946;82;21302;-69
2021/03/15 02:44:54;;;;;;;23.27;14.68;;;9.00;99.90;;;;;;1738969;82;21247;-70
2021/03/15 02:47:27;;;;;;;21.50;13.80;;;9.10;99.90;;;;;;1738848;82;21163;-70
2021/03/15 02:50:00;;;;;;;24.47;15.40;;;9.10;99.90;;;;;;1738855;82;21144;-71
2021/03/15 02:52:31;;;;;;;25.32;15.48;;;9.20;99.90;;;;;;1738723;82;21286;-71
2021/03/15 02:55:03;;;;;;;25.50;16.20;;;9.20;99.90;;;;;;1739308;82;21538;-71
2021/03/15 02:57:35;;;;;;;24.80;15.65;;;9.20;99.90;;;;;;1738694;82;21749;-71
2021/03/15 03:00:06;;;;;;;24.85;15.90;;;9.20;99.90;;;;;;1738870;82;21140;-71
2021/03/15 03:02:36;;;;;;;26.37;15.90;;;9.20;99.90;;;;;;1738717;82;21298;-71
2021/03/15 03:05:08;;;;;;;24.85;16.32;;;9.20;99.90;;;;;;1738675;82;21326;-71
2021/03/15 03:07:43;;;;;;;23.87;15.18;;;9.20;99.90;;;;;;1738714;82;21104;-71
2021/03/15 03:10:12;;;;;;;26.10;15.78;;;9.20;99.90;;;;;;1738985;82;21633;-71
2021/03/15 03:12:42;;;;;;;25.17;15.95;;;9.20;99.90;;;;;;1738681;82;21168;-71
2021/03/15 03:15:13;;;;;;;22.67;15.05;;;9.20;99.90;;;;;;1738652;82;21302;-71
2021/03/15 03:17:43;;;;;;;23.57;15.00;;;9.20;99.90;;;;;;1738966;82;21180;-71
2021/03/15 03:20:16;;;;;;;25.37;15.55;;;9.30;99.90;;;;;;1738870;82;21290;-71
2021/03/15 03:22:47;;;;;;;24.67;15.25;;;9.20;99.90;;;;;;1738714;82;21270;-70
2021/03/15 03:25:19;;;;;;;29.32;17.00;;;9.30;99.90;;;;;;1738671;82;21156;-70
2021/03/15 03:27:54;;;;;;;24.00;15.00;;;9.20;99.90;;;;;;1738994;82;21139;-70
2021/03/15 03:30:29;;;;;;;25.57;16.53;;;9.20;99.90;;;;;;1738990;82;21156;-71
2021/03/15 03:33:05;;;;;;;27.82;16.97;;;9.20;99.90;;;;;;1738785;82;21143;-70
2021/03/15 03:35:33;;;;;;;26.10;16.25;;;9.10;99.90;;;;;;1739026;82;21315;-72
2021/03/15 03:38:02;;;;;;;28.25;17.30;;;9.10;99.90;;;;;;1738738;82;21306;-72
2021/03/15 03:40:30;;;;;;;26.57;16.10;;;9.20;99.90;;;;;;1738781;82;21183;-71
2021/03/15 03:42:58;;;;;;;28.25;17.27;;;9.10;99.90;;;;;;1738675;82;21132;-70
2021/03/15 03:45:26;;;;;;;26.40;16.32;;;9.20;99.90;;;;;;1738691;82;21286;-71
2021/03/15 03:47:54;;;;;;;28.05;16.25;;;9.20;99.90;;;;;;1738663;82;21301;-70
2021/03/15 03:50:29;;;;;;;29.25;17.87;;;9.10;99.90;;;;;;1738678;82;21349;-70
2021/03/15 03:53:07;;;;;;;26.65;17.35;;;9.10;99.90;;;;;;1738704;82;21278;-70
2021/03/15 03:55:52;;;;;;;29.52;17.07;;;9.10;99.90;;;;;;1738871;82;21116;-70
2021/03/15 03:58:23;;;;;;;30.72;17.60;;;9.10;99.90;;;;;;1725369;82;21195;-70
2021/03/15 04:00:53;;;;;;;28.10;17.02;;;9.20;99.90;;;;;;1738676;82;21302;-71
2021/03/15 04:03:25;;;;;;;26.30;16.82;;;9.20;99.90;;;;;;1738756;82;21289;-69
2021/03/15 04:06:01;;;;;;;27.13;17.80;;;9.20;99.90;;;;;;1738983;82;21562;-71
2021/03/15 04:08:50;;;;;;;27.10;17.02;;;9.20;99.90;;;;;;1738807;82;21286;-73
2021/03/15 04:11:20;;;;;;;24.23;14.85;;;9.20;99.90;;;;;;1734005;82;21239;-73
2021/03/15 04:13:53;;;;;;;27.70;16.48;;;9.20;99.90;;;;;;1738746;82;21713;-72
2021/03/15 04:16:35;;;;;;;23.12;15.00;;;9.20;99.90;;;;;;1738846;82;21179;-72
2021/03/15 04:19:07;;;;;;;26.45;16.20;;;9.30;99.90;;;;;;1738915;82;21267;-71
2021/03/15 04:21:38;;;;;;;27.40;17.07;;;9.30;99.90;;;;;;1739106;82;21108;-72
2021/03/15 04:24:11;;;;;;;28.55;17.30;;;9.30;99.90;;;;;;1738993;82;21132;-72
2021/03/15 04:26:41;;;;;;;24.50;15.40;;;9.30;99.90;;;;;;1738915;82;21567;-72
2021/03/15 04:29:10;;;;;;;25.82;16.37;;;9.30;99.90;;;;;;1738822;82;21282;-71
2021/03/15 04:31:38;;;;;;;25.52;17.10;;;9.30;99.90;;;;;;1739082;82;21147;-72
2021/03/15 04:34:06;;;;;;;26.87;16.37;;;9.20;99.90;;;;;;1738790;82;21299;-72
2021/03/15 04:36:34;;;;;;;22.37;14.35;;;9.20;99.90;;;;;;1739052;82;21160;-72
2021/03/15 04:39:05;;;;;;;24.10;14.73;;;9.20;99.90;;;;;;1738792;82;21338;-71
2021/03/15 04:41:33;;;;;;;24.25;15.38;;;9.20;99.90;;;;;;1738866;82;21606;-70
2021/03/15 04:44:01;;;;;;;25.23;15.43;;;9.10;99.90;;;;;;1738806;82;21302;-72
2021/03/15 04:46:30;;;;;;;26.10;15.50;;;9.10;99.90;;;;;;1738861;82;21610;-71
2021/03/15 04:49:03;;;;;;;28.85;16.32;;;9.00;99.90;;;;;;1738783;82;21184;-71
2021/03/15 04:51:29;;;;;;;26.45;15.32;;;9.10;99.90;;;;;;1738802;82;21156;-72
2021/03/15 04:53:57;;;;;;;24.95;14.98;;;9.00;99.90;;;;;;1738876;82;21720;-71
2021/03/15 04:56:28;;;;;;;26.12;15.15;;;9.10;99.90;;;;;;1738959;82;21574;-72
2021/03/15 04:58:59;;;;;;;26.52;15.20;;;9.20;99.90;;;;;;1738761;82;21286;-71
2021/03/15 05:01:33;;;;;;;29.75;15.63;;;9.30;99.90;;;;;;1739087;82;21537;-72
2021/03/15 05:04:07;;;;;;;28.10;15.95;;;9.30;99.90;;;;;;1738855;82;21705;-72
2021/03/15 05:06:36;;;;;;;23.38;14.50;;;9.20;99.90;;;;;;1738799;82;21281;-72
2021/03/15 05:09:08;;;;;;;25.92;15.93;;;9.20;99.90;;;;;;1738859;82;21175;-72
2021/03/15 05:11:39;;;;;;;23.98;14.83;;;9.20;99.90;;;;;;1739215;82;21135;-73
2021/03/15 05:14:08;;;;;;;27.07;16.02;;;9.10;99.90;;;;;;1738770;82;21135;-72
2021/03/15 05:16:38;;;;;;;24.45;15.85;;;9.20;99.90;;;;;;1738806;82;21325;-72
2021/03/15 05:19:10;;;;;;;78.55;45.23;;;9.30;99.90;;;;;;1738800;82;21297;-72
2021/03/15 05:21:44;;;;;;;90.42;53.08;;;9.20;99.90;;;;;;1738989;82;21120;-72
2021/03/15 05:24:12;;;;;;;37.78;23.42;;;9.20;99.90;;;;;;1738842;82;21736;-72
2021/03/15 05:26:42;;;;;;;32.17;21.30;;;9.10;99.90;;;;;;1738839;82;21155;-72
2021/03/15 05:29:14;;;;;;;35.63;19.67;;;9.10;99.90;;;;;;1738770;82;21342;-72
2021/03/15 05:31:49;;;;;;;32.15;18.80;;;9.10;99.90;;;;;;1739142;82;21151;-72
2021/03/15 05:34:21;;;;;;;29.02;17.45;;;9.10;99.90;;;;;;1739070;82;21128;-72
2021/03/15 05:36:51;;;;;;;25.95;14.98;;;9.10;99.90;;;;;;1738934;82;21108;-72
2021/03/15 05:39:18;;;;;;;25.27;14.30;;;9.20;99.90;;;;;;1738740;82;21286;-72
2021/03/15 05:42:07;;;;;;;24.27;14.68;;;9.30;99.90;;;;;;1738732;82;21311;-71
2021/03/15 05:45:28;;;;;;;26.30;14.13;;;9.30;99.90;;;;;;1737075;82;21286;-72
2021/03/15 05:48:41;;;;;;;31.90;17.65;;;9.30;99.90;;;;;;1736987;82;21163;-71
2021/03/15 05:51:45;;;;;;;33.35;18.48;;;9.30;99.90;;;;;;1738779;82;21736;-72
2021/03/15 05:55:05;;;;;;;30.40;18.10;;;9.30;99.90;;;;;;1737181;82;21740;-71
2021/03/15 05:58:21;;;;;;;30.43;16.42;;;9.20;99.90;;;;;;1738683;82;21347;-71
2021/03/15 06:01:17;;;;;;;27.17;14.75;;;9.20;99.90;;;;;;1738681;82;21298;-71
2021/03/15 06:04:17;;;;;;;25.50;15.75;;;9.10;99.90;;;;;;1738744;82;21155;-71
2021/03/15 06:06:48;;;;;;;28.95;15.50;;;9.20;99.90;;;;;;1738698;82;21291;-72
2021/03/15 06:09:24;;;;;;;24.98;14.98;;;9.20;99.90;;;;;;1738739;82;21286;-72
2021/03/15 06:12:01;;;;;;;30.20;15.80;;;9.30;99.90;;;;;;1738510;82;21159;-72
2021/03/15 06:14:31;;;;;;;24.15;15.00;;;9.30;99.90;;;;;;1738823;82;21290;-72
2021/03/15 06:16:59;;;;;;;27.95;16.10;;;9.30;99.90;;;;;;1738631;82;21140;-72
2021/03/15 06:19:31;;;;;;;36.15;19.48;;;9.40;99.90;;;;;;1738827;82;21301;-71
2021/03/15 06:22:00;;;;;;;29.80;17.67;;;9.50;99.90;;;;;;1738724;82;21291;-71
2021/03/15 06:24:28;;;;;;;23.83;13.90;;;9.50;99.90;;;;;;1738932;82;21622;-72
2021/03/15 06:26:56;;;;;;;20.45;12.50;;;9.40;99.90;;;;;;1738794;82;21128;-72
2021/03/15 06:29:24;;;;;;;22.80;12.93;;;9.50;99.90;;;;;;1738917;82;21168;-72
2021/03/15 06:31:52;;;;;;;21.42;12.82;;;9.50;99.90;;;;;;1738684;82;21314;-71
2021/03/15 06:34:23;;;;;;;22.58;12.85;;;9.40;99.90;;;;;;1738893;82;21306;-72
2021/03/15 06:36:52;;;;;;;20.85;12.50;;;9.40;99.90;;;;;;1738844;82;21157;-72
2021/03/15 06:39:21;;;;;;;21.68;13.25;;;9.60;99.90;;;;;;1738690;82;21298;-72
2021/03/15 06:41:54;;;;;;;20.57;12.55;;;9.50;99.90;;;;;;1738754;82;21726;-71
2021/03/15 06:44:23;;;;;;;21.27;12.10;;;9.50;99.90;;;;;;1738873;82;21297;-71
2021/03/15 06:46:52;;;;;;;30.80;17.77;;;9.50;99.90;;;;;;1738701;82;21180;-71
2021/03/15 06:49:20;;;;;;;35.52;18.92;;;9.50;99.90;;;;;;1738708;82;21322;-71
2021/03/15 06:52:06;;;;;;;33.70;18.87;;;9.50;99.90;;;;;;1738880;82;21136;-71
2021/03/15 06:54:35;;;;;;;40.88;22.45;;;9.50;99.90;;;;;;1719962;82;21172;-72
2021/03/15 06:57:23;;;;;;;38.40;21.90;;;9.40;99.90;;;;;;1738356;82;21163;-71
2021/03/15 06:59:55;;;;;;;37.53;20.52;;;9.40;99.90;;;;;;1708815;82;22594;-71
2021/03/15 07:02:28;;;;;;;37.17;20.40;;;9.30;99.90;;;;;;1738795;82;21314;-72
2021/03/15 07:05:14;;;;;;;36.63;20.05;;;9.30;99.90;;;;;;1738968;82;21155;-71
2021/03/15 07:07:51;;;;;;;34.70;18.65;;;9.30;99.90;;;;;;1739012;82;21163;-72
2021/03/15 07:10:33;;;;;;;34.03;18.15;;;9.30;99.90;;;;;;1738793;82;21152;-72
2021/03/15 07:13:20;;;;;;;33.63;19.25;;;9.30;99.90;;;;;;1738925;82;21293;-72
2021/03/15 07:15:51;;;;;;;31.05;17.77;;;9.30;99.90;;;;;;1738744;82;21171;-72
2021/03/15 07:18:23;;;;;;;32.23;18.77;;;9.40;99.90;;;;;;1738778;82;21325;-72
2021/03/15 07:20:57;;;;;;;28.35;16.05;;;9.50;99.90;;;;;;1738709;82;21165;-72
2021/03/15 07:23:50;;;;;;;29.50;15.95;;;9.50;99.90;;;;;;1738896;82;21689;-71
2021/03/15 07:26:24;;;;;;;29.80;17.42;;;9.60;99.90;;;;;;1739063;82;21143;-71
2021/03/15 07:28:52;;;;;;;24.70;13.43;;;9.80;99.90;;;;;;1738797;82;21728;-72
2021/03/15 07:31:32;;;;;;;18.87;11.63;;;10.00;99.90;;;;;;1738691;82;21318;-72
2021/03/15 07:34:06;;;;;;;18.15;11.35;;;10.00;99.90;;;;;;1738864;82;21175;-72
2021/03/15 07:36:57;;;;;;;16.70;11.55;;;10.00;99.90;;;;;;1738689;82;21290;-72
2021/03/15 07:39:28;;;;;;;16.70;10.48;;;10.10;99.90;;;;;;1738647;82;21147;-72
2021/03/15 07:41:59;;;;;;;19.45;11.93;;;10.00;99.90;;;;;;1738692;82;21279;-71
2021/03/15 07:44:34;;;;;;;19.60;12.37;;;9.90;99.90;;;;;;1739375;82;21108;-72
2021/03/15 07:47:06;;;;;;;19.87;12.47;;;9.90;99.90;;;;;;1738945;82;21593;-71
2021/03/15 07:49:42;;;;;;;18.62;12.05;;;9.90;99.90;;;;;;1738866;82;21148;-71
2021/03/15 07:52:12;;;;;;;19.75;11.05;;;9.80;99.90;;;;;;1739151;82;21570;-71
2021/03/15 07:54:44;;;;;;;18.35;11.03;;;9.80;99.90;;;;;;1739007;82;21169;-71
2021/03/15 07:57:28;;;;;;;16.62;10.70;;;9.70;99.90;;;;;;1738773;82;21152;-71
2021/03/15 07:59:57;;;;;;;18.85;11.80;;;9.70;99.90;;;;;;1739011;82;21145;-72
2021/03/15 08:02:37;;;;;;;16.90;9.98;;;9.70;99.90;;;;;;1738935;82;21128;-72
2021/03/15 08:05:04;;;;;;;16.73;11.27;;;9.70;99.90;;;;;;1738657;82;21298;-72
2021/03/15 08:07:32;;;;;;;19.10;12.10;;;9.80;99.90;;;;;;1738799;82;21985;-72
2021/03/15 08:10:00;;;;;;;18.67;10.63;;;9.80;99.90;;;;;;1738818;82;21325;-72
2021/03/15 08:12:36;;;;;;;19.40;11.00;;;9.70;99.90;;;;;;1738799;82;21286;-72
2021/03/15 08:15:09;;;;;;;18.98;10.60;;;9.70;99.90;;;;;;1738997;82;21523;-72
2021/03/15 08:17:44;;;;;;;17.12;9.53;;;9.70;99.90;;;;;;1738745;82;21175;-71
2021/03/15 08:20:14;;;;;;;16.32;11.00;;;9.70;99.90;;;;;;1739156;82;21591;-72
2021/03/15 08:22:45;;;;;;;15.35;8.93;;;9.80;99.90;;;;;;1739063;82;21191;-72
2021/03/15 08:25:15;;;;;;;15.08;9.73;;;9.80;99.90;;;;;;1738897;82;21145;-72
2021/03/15 08:27:47;;;;;;;15.28;10.13;;;9.90;99.90;;;;;;1738878;82;21598;-71
2021/03/15 08:30:28;;;;;;;16.57;10.00;;;9.90;99.90;;;;;;1738881;82;21143;-72
2021/03/15 08:32:58;;;;;;;16.15;10.13;;;10.00;99.90;;;;;;1738983;82;21159;-72
2021/03/15 08:35:28;;;;;;;14.75;9.45;;;10.10;99.90;;;;;;1739460;82;21547;-71
2021/03/15 08:38:06;;;;;;;16.32;10.30;;;10.20;99.90;;;;;;1738926;82;21132;-72
2021/03/15 08:40:48;;;;;;;20.05;12.13;;;10.20;99.90;;;;;;1738820;82;21710;-71
2021/03/15 08:43:25;;;;;;;17.02;11.53;;;10.20;99.90;;;;;;1713810;82;21112;-72
2021/03/15 08:45:58;;;;;;;18.73;12.25;;;10.20;99.90;;;;;;1738993;82;21117;-72
2021/03/15 08:48:43;;;;;;;18.98;12.45;;;10.30;99.90;;;;;;1738804;82;21294;-71
2021/03/15 08:51:16;;;;;;;19.23;12.03;;;10.40;99.90;;;;;;1739142;82;21147;-72
2021/03/15 08:53:51;;;;;;;17.23;10.70;;;10.40;99.90;;;;;;1738805;82;21291;-72
2021/03/15 08:56:24;;;;;;;15.68;10.53;;;10.30;99.90;;;;;;1739116;82;21562;-73
2021/03/15 08:58:54;;;;;;;16.37;10.23;;;10.20;99.90;;;;;;1738949;82;21176;-71
2021/03/15 09:01:26;;;;;;;16.55;9.20;;;10.20;99.90;;;;;;1739056;82;21305;-71
2021/03/15 09:03:58;;;;;;;13.88;9.43;;;10.20;99.90;;;;;;1738736;82;21298;-72
2021/03/15 09:06:44;;;;;;;16.67;9.83;;;10.10;99.90;;;;;;1738961;82;21590;-72
2021/03/15 09:09:22;;;;;;;15.70;9.43;;;10.00;99.90;;;;;;1738799;82;21151;-72
2021/03/15 09:11:55;;;;;;;14.53;9.45;;;9.90;99.90;;;;;;1738371;82;21314;-72
2021/03/15 09:14:30;;;;;;;15.83;9.25;;;9.80;99.90;;;;;;1738772;82;21286;-71
2021/03/15 09:17:02;;;;;;;15.50;9.70;;;9.80;99.90;;;;;;1742657;81;21183;-71
2021/03/15 09:19:43;;;;;;;16.23;10.65;;;9.70;99.90;;;;;;1744799;81;21167;-71
2021/03/15 09:22:34;;;;;;;18.67;10.80;;;9.70;99.90;;;;;;1748452;82;21143;-72
2021/03/15 09:25:10;;;;;;;17.07;11.12;;;9.70;99.90;;;;;;1747872;82;21124;-72
2021/03/15 09:27:40;;;;;;;17.25;9.55;;;9.70;99.90;;;;;;1746093;82;21140;-72
2021/03/15 09:30:21;;;;;;;17.35;11.03;;;9.70;99.90;;;;;;1748352;82;21163;-70
2021/03/15 09:32:54;;;;;;;16.87;10.95;;;9.70;99.90;;;;;;1748134;82;21160;-73
2021/03/15 09:35:35;;;;;;;18.60;11.95;;;9.70;99.90;;;;;;1748262;82;21163;-71
2021/03/15 09:38:12;;;;;;;18.15;11.65;;;9.70;99.90;;;;;;1748300;82;21160;-71
2021/03/15 09:40:50;;;;;;;17.02;10.58;;;9.70;99.90;;;;;;1748552;82;21151;-71
2021/03/15 09:43:22;;;;;;;15.40;9.95;;;9.80;99.90;;;;;;1745369;82;21586;-71
2021/03/15 09:45:57;;;;;;;15.80;10.53;;;9.90;99.90;;;;;;1748263;82;21155;-71
2021/03/15 09:48:29;;;;;;;17.12;10.53;;;9.90;99.90;;;;;;1748546;82;21152;-71
2021/03/15 09:51:05;;;;;;;18.62;10.48;;;10.00;99.90;;;;;;1748266;82;21163;-71
2021/03/15 09:53:47;;;;;;;15.55;10.28;;;10.10;99.90;;;;;;1734755;82;21637;-72
2021/03/15 09:56:17;;;;;;;15.30;10.23;;;10.20;99.90;;;;;;1748037;82;21602;-72
2021/03/15 09:58:46;;;;;;;15.63;10.20;;;10.30;99.90;;;;;;1747761;82;21136;-71
2021/03/15 10:01:21;;;;;;;18.37;10.80;;;10.40;99.90;;;;;;1748275;82;21594;-71
2021/03/15 10:04:06;;;;;;;16.15;10.93;;;10.40;99.90;;;;;;1744385;82;21164;-72
2021/03/15 10:06:41;;;;;;;17.80;11.03;;;10.40;99.90;;;;;;1728807;82;21171;-71
2021/03/15 10:09:15;;;;;;;20.20;11.38;;;10.40;99.90;;;;;;1744510;82;21199;-72
2021/03/15 10:11:54;;;;;;;19.60;12.45;;;10.40;99.90;;;;;;1748281;82;21148;-72
2021/03/15 10:14:41;;;;;;;17.52;10.72;;;10.30;99.90;;;;;;1748307;82;21144;-71
2021/03/15 10:17:22;;;;;;;18.77;11.85;;;10.30;99.90;;;;;;1746749;82;21575;-72
2021/03/15 10:19:58;;;;;;;18.98;11.25;;;10.30;99.90;;;;;;1747463;82;21183;-71
2021/03/15 10:22:27;;;;;;;18.25;12.13;;;10.20;99.90;;;;;;1748220;82;21148;-72
2021/03/15 10:24:57;;;;;;;17.07;11.50;;;10.10;99.90;;;;;;1747897;82;21554;-72
2021/03/15 10:27:29;;;;;;;17.12;10.05;;;10.10;99.90;;;;;;1747930;82;21168;-72
2021/03/15 10:30:11;;;;;;;14.63;10.15;;;10.10;99.90;;;;;;1748677;82;21317;-71
2021/03/15 10:32:42;;;;;;;14.75;10.15;;;10.10;99.90;;;;;;1748425;82;21163;-72
2021/03/15 10:35:13;;;;;;;18.15;11.28;;;10.00;99.90;;;;;;1748314;82;21543;-72
2021/03/15 10:37:43;;;;;;;15.35;10.68;;;10.00;99.90;;;;;;1747054;82;21175;-71
2021/03/15 10:40:23;;;;;;;19.17;11.70;;;10.00;99.90;;;;;;1747361;82;21633;-72
2021/03/15 10:42:54;;;;;;;16.30;10.93;;;10.00;99.90;;;;;;1748366;82;21605;-72
2021/03/15 10:45:27;;;;;;;14.13;9.48;;;10.00;99.90;;;;;;1748101;82;21136;-71
2021/03/15 10:48:04;;;;;;;18.95;10.00;;;9.90;99.90;;;;;;1747978;82;21160;-71
2021/03/15 10:50:38;;;;;;;18.77;10.55;;;9.90;99.90;;;;;;1746628;82;21124;-71
2021/03/15 10:53:28;;;;;;;16.50;10.88;;;10.00;99.90;;;;;;1744858;82;21202;-74
2021/03/15 10:55:58;;;;;;;15.28;10.13;;;10.00;99.90;;;;;;1746352;82;21183;-71
2021/03/15 10:58:39;;;;;;;18.42;10.10;;;10.00;99.90;;;;;;1745081;82;21162;-73
2021/03/15 11:01:09;;;;;;;18.12;11.30;;;10.00;99.90;;;;;;1747134;82;21190;-72
2021/03/15 11:03:40;;;;;;;16.23;10.53;;;10.00;99.90;;;;;;1747288;82;21203;-74
2021/03/15 11:06:22;;;;;;;16.15;10.72;;;10.10;99.90;;;;;;1743655;82;21179;-74
2021/03/15 11:08:58;;;;;;;16.05;10.65;;;10.10;99.90;;;;;;1746030;82;21160;-73
2021/03/15 11:11:33;;;;;;;15.05;10.68;;;10.10;99.90;;;;;;1748110;82;21164;-73
2021/03/15 11:14:10;;;;;;;17.77;11.85;;;10.20;99.90;;;;;;1745913;82;21150;-75
2021/03/15 11:16:40;;;;;;;15.78;10.58;;;10.30;99.90;;;;;;1734078;82;21127;-73
2021/03/15 11:19:12;;;;;;;15.32;11.45;;;10.30;99.90;;;;;;1739157;82;21142;-74
2021/03/15 11:21:46;;;;;;;17.20;11.08;;;10.40;99.90;;;;;;1738315;82;21573;-73
2021/03/15 11:24:27;;;;;;;16.93;11.10;;;10.40;99.90;;;;;;1735719;82;21131;-74
2021/03/15 11:27:03;;;;;;;18.07;11.10;;;10.40;99.90;;;;;;1738064;82;21191;-74
2021/03/15 11:29:39;;;;;;;18.10;11.57;;;10.30;99.90;;;;;;1731872;82;21143;-72
2021/03/15 11:32:18;;;;;;;18.48;11.80;;;10.40;99.90;;;;;;1816431;77;22886;-72
2021/03/15 11:34:50;;;;;;;17.75;11.28;;;10.30;99.90;;;;;;1801378;78;21615;-76
2021/03/15 11:37:28;;;;;;;16.50;11.05;;;10.40;99.90;;;;;;1795866;80;21184;-74
2021/03/15 11:40:00;;;;;;;15.03;10.90;;;10.30;99.90;;;;;;1799632;78;21128;-73
2021/03/15 11:42:31;;;;;;;14.58;9.50;;;10.30;99.90;;;;;;1797911;78;21157;-75
2021/03/15 11:45:04;;;;;;;17.70;11.18;;;10.20;99.90;;;;;;1792493;79;21275;-72
2021/03/15 11:47:34;;;;;;;16.45;10.35;;;10.20;99.90;;;;;;1797353;80;21137;-68
2021/03/15 11:50:07;;;;;;;14.68;9.88;;;10.10;99.90;;;;;;1801686;78;21212;-77
2021/03/15 11:52:39;;;;;;;17.82;10.30;;;10.20;99.90;;;;;;1806781;78;21121;-71
2021/03/15 11:55:09;;;;;;;15.55;9.98;;;10.20;99.90;;;;;;1798826;78;21415;-72
2021/03/15 11:57:40;;;;;;;16.85;10.28;;;10.10;99.90;;;;;;1802655;78;21172;-74
2021/03/15 12:00:12;;;;;;;15.43;9.53;;;10.10;99.90;;;;;;1801845;78;21626;-75
2021/03/15 12:02:49;;;;;;;15.23;9.40;;;10.10;99.90;;;;;;1801611;78;21147;-74
2021/03/15 12:05:31;;;;;;;14.58;9.55;;;10.10;99.90;;;;;;1798547;78;21149;-78
2021/03/15 12:08:00;;;;;;;17.27;10.60;;;10.20;99.90;;;;;;1796087;80;21287;-72
2021/03/15 12:10:32;;;;;;;13.43;9.60;;;10.20;99.90;;;;;;1795651;80;21153;-76
2021/03/15 12:13:01;;;;;;;13.58;9.28;;;10.20;99.90;;;;;;1805066;78;21179;-72
2021/03/15 12:15:30;;;;;;;12.35;8.98;;;10.30;99.90;;;;;;1802180;78;21124;-71
2021/03/15 12:18:00;;;;;;;15.00;8.55;;;10.40;99.90;;;;;;1796747;80;21579;-73
2021/03/15 12:20:28;;;;;;;14.28;9.28;;;10.40;99.90;;;;;;1804700;78;21156;-74
2021/03/15 12:22:57;;;;;;;14.75;9.13;;;10.50;99.90;;;;;;1827246;78;21123;-80
2021/03/15 12:25:26;;;;;;;13.60;9.00;;;10.60;99.90;;;;;;1819185;78;21129;-78
2021/03/15 12:27:59;;;;;;;13.72;9.08;;;10.70;99.90;;;;;;1802075;78;21165;-77
2021/03/15 12:30:28;;;;;;;11.78;8.95;;;10.70;99.90;;;;;;1797415;78;21148;-76
2021/03/15 12:32:56;;;;;;;12.82;8.38;;;10.80;99.90;;;;;;1759617;79;21151;-78
2021/03/15 12:35:28;;;;;;;11.85;7.97;;;10.80;99.90;;;;;;1757513;79;21172;-76
2021/03/15 12:37:57;;;;;;;12.90;8.43;;;10.80;99.90;;;;;;1763556;79;21086;-78
2021/03/15 12:40:25;;;;;;;12.70;7.95;;;10.80;99.90;;;;;;1757318;79;21208;-75
2021/03/15 12:42:53;;;;;;;12.82;8.53;;;10.80;99.90;;;;;;1758502;80;21564;-75
2021/03/15 12:45:22;;;;;;;14.45;8.93;;;10.80;99.90;;;;;;1758645;81;21271;-75
2021/03/15 12:47:52;;;;;;;11.78;8.10;;;10.80;99.90;;;;;;1757094;81;21307;-75
2021/03/15 12:50:22;;;;;;;10.32;7.67;;;10.80;99.90;;;;;;1764500;80;21318;-68
2021/03/15 12:52:49;;;;;;;12.78;9.15;;;10.90;99.90;;;;;;1726798;81;21133;-73
2021/03/15 12:55:19;;;;;;;12.23;8.03;;;10.90;99.90;;;;;;1754587;81;21117;-72
2021/03/15 12:57:48;;;;;;;12.98;8.53;;;10.90;99.90;;;;;;1758126;81;21176;-72
2021/03/15 13:00:17;;;;;;;11.20;7.90;;;10.90;99.90;;;;;;1758968;81;21306;-71
2021/03/15 13:02:55;;;;;;;8.60;6.53;;;10.90;99.90;;;;;;1730690;80;21594;-69
2021/03/15 13:05:24;;;;;;;8.18;6.30;;;10.80;99.90;;;;;;1756591;81;21282;-70
2021/03/15 13:08:10;;;;;;;9.68;6.87;;;10.80;99.90;;;;;;1757970;81;21283;-73
2021/03/15 13:10:40;;;;;;;11.65;6.87;;;10.70;99.90;;;;;;1748494;81;21156;-71